CheckWX is a tool to help pilots better visualize weather data.  It is not intended as a substitute for an official pre-flight weather briefing.

08:57:49 UTC

LIBA METAR
Amendola Airport
Foggia, Italy
Current

1 hour ago

LIBA 290755Z 09004KT CAVOK 08/02 Q1021 RMK BKN BKN220 VIS MIN 9999 WIND THR11 09005KT WIND THR29 /////KT BLU
Observed
Feb-29 @ 07:55 UTC
Wind
  • 090° at 4 KTS
Visibility
10,000+ meters
Flight Rules
VFR
Cloud Levels
  • Clear skies
Temperature
C / 46°F
Dewpoint
C / 36°F
Humidity
66%
Altimeter
30.15" Hg
Pressure
1020.92 hPa
Previous

2 hours ago

LIBA 290655Z 01002KT CAVOK 02/01 Q1020 RMK BKN BKN200 VIS MIN 9999 WIND THR11 02001KT WIND THR29 /////KT BLU
Observed
Feb-29 @ 06:55 UTC
Wind
  • 010° at 2 KTS
Visibility
10,000+ meters
Flight Rules
VFR
Cloud Levels
  • Clear skies
Temperature
C / 36°F
Dewpoint
C / 34°F
Humidity
93%
Altimeter
30.12" Hg
Pressure
1019.92 hPa
Previous

3 hours ago

LIBA 290555Z VRB02KT CAVOK 01/01 Q1020 RMK BKN BKN200 VIS MIN 9999 WIND THR11 VRB01KT WIND THR29 /////KT BLU
Observed
Feb-29 @ 05:55 UTC
Wind
  • Variable at 2 KTS
Visibility
10,000+ meters
Flight Rules
VFR
Cloud Levels
  • Clear skies
Temperature
C / 34°F
Dewpoint
C / 34°F
Humidity
100%
Altimeter
30.12" Hg
Pressure
1019.92 hPa